sensor_id;sensor_type;location;lat;lon;timestamp;pressure;altitude;pressure_sealevel;temperature;humidity
38197;BME280;26543;51.976;4.616;2024-02-15T00:00:36;61831.41;;;-140.72;100.00
38197;BME280;26543;51.976;4.616;2024-02-15T00:03:02;61815.13;;;-140.72;100.00
38197;BME280;26543;51.976;4.616;2024-02-15T00:05:28;61888.34;;;-140.72;100.00
38197;BME280;26543;51.976;4.616;2024-02-15T00:07:53;61874.09;;;-140.72;100.00
38197;BME280;26543;51.976;4.616;2024-02-15T00:10:19;61878.19;;;-140.72;100.00
38197;BME280;26543;51.976;4.616;2024-02-15T00:12:48;61882.25;;;-140.72;100.00
38197;BME280;26543;51.976;4.616;2024-02-15T00:15:15;61908.69;;;-140.72;100.00
38197;BME280;26543;51.976;4.616;2024-02-15T00:17:40;61888.34;;;-140.72;100.00
38197;BME280;26543;51.976;4.616;2024-02-15T00:20:06;61918.84;;;-140.72;100.00
38197;BME280;26543;51.976;4.616;2024-02-15T00:22:38;61896.47;;;-140.72;100.00
38197;BME280;26543;51.976;4.616;2024-02-15T00:25:06;61945.31;;;-140.72;100.00
38197;BME280;26543;51.976;4.616;2024-02-15T00:27:34;61906.66;;;-140.72;100.00
38197;BME280;26543;51.976;4.616;2024-02-15T00:29:59;61890.38;;;-140.72;100.00
38197;BME280;26543;51.976;4.616;2024-02-15T00:32:25;61910.72;;;-140.72;100.00
38197;BME280;26543;51.976;4.616;2024-02-15T00:34:50;61939.19;;;-140.72;100.00
38197;BME280;26543;51.976;4.616;2024-02-15T00:37:15;61892.41;;;-140.72;100.00
38197;BME280;26543;51.976;4.616;2024-02-15T00:39:41;61851.72;;;-140.72;100.00
38197;BME280;26543;51.976;4.616;2024-02-15T00:42:07;61890.38;;;-140.72;100.00
38197;BME280;26543;51.976;4.616;2024-02-15T00:44:34;61890.38;;;-140.72;100.00
38197;BME280;26543;51.976;4.616;2024-02-15T00:46:59;61894.44;;;-140.72;100.00
38197;BME280;26543;51.976;4.616;2024-02-15T00:49:25;61872.06;;;-140.72;100.00
38197;BME280;26543;51.976;4.616;2024-02-15T00:51:53;61894.44;;;-140.72;100.00
38197;BME280;26543;51.976;4.616;2024-02-15T00:54:18;61892.41;;;-140.72;100.00
38197;BME280;26543;51.976;4.616;2024-02-15T00:56:43;61957.50;;;-140.72;100.00
38197;BME280;26543;51.976;4.616;2024-02-15T00:59:09;61924.97;;;-140.72;100.00
38197;BME280;26543;51.976;4.616;2024-02-15T01:01:34;61961.56;;;-140.72;100.00
38197;BME280;26543;51.976;4.616;2024-02-15T01:04:03;61996.16;;;-140.72;100.00
38197;BME280;26543;51.976;4.616;2024-02-15T01:06:29;61998.19;;;-140.72;100.00
38197;BME280;26543;51.976;4.616;2024-02-15T01:08:54;61992.09;;;-140.72;100.00
38197;BME280;26543;51.976;4.616;2024-02-15T01:11:19;62008.34;;;-140.72;100.00
38197;BME280;26543;51.976;4.616;2024-02-15T01:13:45;61992.09;;;-140.72;100.00
38197;BME280;26543;51.976;4.616;2024-02-15T01:16:10;62010.38;;;-140.72;100.00
38197;BME280;26543;51.976;4.616;2024-02-15T01:18:35;62010.38;;;-140.72;100.00
38197;BME280;26543;51.976;4.616;2024-02-15T01:21:01;62012.41;;;-140.72;100.00
38197;BME280;26543;51.976;4.616;2024-02-15T01:23:26;62030.72;;;-140.72;100.00
38197;BME280;26543;51.976;4.616;2024-02-15T01:25:52;61969.72;;;-140.72;100.00
38197;BME280;26543;51.976;4.616;2024-02-15T01:28:17;62000.22;;;-140.72;100.00
38197;BME280;26543;51.976;4.616;2024-02-15T01:30:43;62028.69;;;-140.72;100.00
38197;BME280;26543;51.976;4.616;2024-02-15T01:33:12;62032.75;;;-140.72;100.00
38197;BME280;26543;51.976;4.616;2024-02-15T01:35:37;62004.28;;;-140.72;100.00
38197;BME280;26543;51.976;4.616;2024-02-15T01:38:03;62002.25;;;-140.72;100.00
38197;BME280;26543;51.976;4.616;2024-02-15T01:40:29;62067.34;;;-140.72;100.00
38197;BME280;26543;51.976;4.616;2024-02-15T01:42:54;62042.94;;;-140.72;100.00
38197;BME280;26543;51.976;4.616;2024-02-15T01:45:20;62067.34;;;-140.72;100.00
38197;BME280;26543;51.976;4.616;2024-02-15T01:47:47;62067.34;;;-140.72;100.00
38197;BME280;26543;51.976;4.616;2024-02-15T01:50:13;62089.72;;;-140.72;100.00
38197;BME280;26543;51.976;4.616;2024-02-15T01:52:39;62106.00;;;-140.72;100.00
38197;BME280;26543;51.976;4.616;2024-02-15T01:55:06;62160.91;;;-140.72;100.00
38197;BME280;26543;51.976;4.616;2024-02-15T01:57:35;62167.00;;;-140.72;100.00
38197;BME280;26543;51.976;4.616;2024-02-15T02:00:01;62162.94;;;-140.72;100.00
38197;BME280;26543;51.976;4.616;2024-02-15T02:02:29;62130.41;;;-140.72;100.00
38197;BME280;26543;51.976;4.616;2024-02-15T02:04:56;62217.88;;;-140.72;100.00
38197;BME280;26543;51.976;4.616;2024-02-15T02:07:22;62197.53;;;-140.72;100.00
38197;BME280;26543;51.976;4.616;2024-02-15T02:09:47;62240.25;;;-140.72;100.00
38197;BME280;26543;51.976;4.616;2024-02-15T02:12:14;62171.06;;;-140.72;100.00
38197;BME280;26543;51.976;4.616;2024-02-15T02:14:40;62167.00;;;-140.72;100.00
38197;BME280;26543;51.976;4.616;2024-02-15T02:17:15;62258.56;;;-140.72;100.00
38197;BME280;26543;51.976;4.616;2024-02-15T02:19:41;62234.13;;;-140.72;100.00
38197;BME280;26543;51.976;4.616;2024-02-15T02:22:08;62152.78;;;-140.72;100.00
38197;BME280;26543;51.976;4.616;2024-02-15T02:24:40;62201.59;;;-140.72;100.00
38197;BME280;26543;51.976;4.616;2024-02-15T02:27:12;62138.53;;;-140.72;100.00
38197;BME280;26543;51.976;4.616;2024-02-15T02:29:42;62077.50;;;-140.72;100.00
38197;BME280;26543;51.976;4.616;2024-02-15T02:32:10;62099.88;;;-140.72;100.00
38197;BME280;26543;51.976;4.616;2024-02-15T02:34:36;62069.38;;;-140.72;100.00
38197;BME280;26543;51.976;4.616;2024-02-15T02:37:01;62028.69;;;-140.72;100.00
38197;BME280;26543;51.976;4.616;2024-02-15T02:39:30;62044.97;;;-140.72;100.00
38197;BME280;26543;51.976;4.616;2024-02-15T02:41:56;62038.88;;;-140.72;100.00
38197;BME280;26543;51.976;4.616;2024-02-15T02:44:22;61983.94;;;-140.72;100.00
38197;BME280;26543;51.976;4.616;2024-02-15T02:46:47;62040.91;;;-140.72;100.00
38197;BME280;26543;51.976;4.616;2024-02-15T02:49:13;61998.19;;;-140.72;100.00
38197;BME280;26543;51.976;4.616;2024-02-15T02:51:38;62040.91;;;-140.72;100.00
38197;BME280;26543;51.976;4.616;2024-02-15T02:54:03;62053.09;;;-140.72;100.00
38197;BME280;26543;51.976;4.616;2024-02-15T02:56:32;62030.72;;;-140.72;100.00
38197;BME280;26543;51.976;4.616;2024-02-15T02:58:57;62008.34;;;-140.72;100.00
38197;BME280;26543;51.976;4.616;2024-02-15T03:01:23;62032.75;;;-140.72;100.00
38197;BME280;26543;51.976;4.616;2024-02-15T03:03:52;62018.53;;;-140.72;100.00
38197;BME280;26543;51.976;4.616;2024-02-15T03:06:20;62008.34;;;-140.72;100.00
38197;BME280;26543;51.976;4.616;2024-02-15T03:08:46;62034.78;;;-140.72;100.00
38197;BME280;26543;51.976;4.616;2024-02-15T03:11:12;62012.41;;;-140.72;100.00
38197;BME280;26543;51.976;4.616;2024-02-15T03:13:39;62040.91;;;-140.72;100.00
38197;BME280;26543;51.976;4.616;2024-02-15T03:16:05;62079.53;;;-140.72;100.00
38197;BME280;26543;51.976;4.616;2024-02-15T03:18:30;62032.75;;;-140.72;100.00
38197;BME280;26543;51.976;4.616;2024-02-15T03:20:57;62047.00;;;-140.72;100.00
38197;BME280;26543;51.976;4.616;2024-02-15T03:23:22;62097.84;;;-140.72;100.00
38197;BME280;26543;51.976;4.616;2024-02-15T03:25:48;62110.06;;;-140.72;100.00
38197;BME280;26543;51.976;4.616;2024-02-15T03:28:14;62122.25;;;-140.72;100.00
38197;BME280;26543;51.976;4.616;2024-02-15T03:30:41;62122.25;;;-140.72;100.00
38197;BME280;26543;51.976;4.616;2024-02-15T03:33:08;62167.00;;;-140.72;100.00
38197;BME280;26543;51.976;4.616;2024-02-15T03:35:34;62189.38;;;-140.72;100.00
38197;BME280;26543;51.976;4.616;2024-02-15T03:37:59;62270.75;;;-140.72;100.00
38197;BME280;26543;51.976;4.616;2024-02-15T03:40:26;62339.91;;;-140.72;100.00
38197;BME280;26543;51.976;4.616;2024-02-15T03:42:52;62411.13;;;-140.72;100.00
38197;BME280;26543;51.976;4.616;2024-02-15T03:45:18;62457.91;;;-140.72;100.00
38197;BME280;26543;51.976;4.616;2024-02-15T03:47:43;62533.16;;;-140.72;100.00
38197;BME280;26543;51.976;4.616;2024-02-15T03:50:10;62606.41;;;-140.72;100.00
38197;BME280;26543;51.976;4.616;2024-02-15T03:52:37;62638.97;;;-140.72;100.00
38197;BME280;26543;51.976;4.616;2024-02-15T03:55:02;62781.38;;;-140.72;100.00
38197;BME280;26543;51.976;4.616;2024-02-15T03:57:28;62834.25;;;-140.72;100.00
38197;BME280;26543;51.976;4.616;2024-02-15T03:59:54;62960.41;;;-140.72;100.00
38197;BME280;26543;51.976;4.616;2024-02-15T04:02:22;63027.53;;;-140.72;100.00
38197;BME280;26543;51.976;4.616;2024-02-15T04:04:51;63127.22;;;-140.72;100.00
38197;BME280;26543;51.976;4.616;2024-02-15T04:07:18;63198.44;;;-140.72;100.00
38197;BME280;26543;51.976;4.616;2024-02-15T04:09:44;63259.47;;;-140.72;100.00
38197;BME280;26543;51.976;4.616;2024-02-15T04:12:10;63340.88;;;-140.72;100.00
38197;BME280;26543;51.976;4.616;2024-02-15T04:14:37;63465.00;;;-140.72;100.00
38197;BME280;26543;51.976;4.616;2024-02-15T04:17:04;63521.97;;;-140.72;100.00
38197;BME280;26543;51.976;4.616;2024-02-15T04:19:30;63591.16;;;-140.72;100.00
38197;BME280;26543;51.976;4.616;2024-02-15T04:21:56;63670.50;;;-140.72;100.00
38197;BME280;26543;51.976;4.616;2024-02-15T04:24:21;63760.03;;;-140.72;100.00
38197;BME280;26543;51.976;4.616;2024-02-15T04:26:47;63835.34;;;-140.72;100.00
38197;BME280;26543;51.976;4.616;2024-02-15T04:29:14;63896.38;;;-140.72;100.00
38197;BME280;26543;51.976;4.616;2024-02-15T04:31:40;64028.66;;;-140.72;100.00
38197;BME280;26543;51.976;4.616;2024-02-15T04:34:06;64042.91;;;-140.72;100.00
38197;BME280;26543;51.976;4.616;2024-02-15T04:36:31;64118.22;;;-140.72;100.00
38197;BME280;26543;51.976;4.616;2024-02-15T04:38:59;64197.59;;;-140.72;100.00
38197;BME280;26543;51.976;4.616;2024-02-15T04:41:26;64205.72;;;-140.72;100.00
38197;BME280;26543;51.976;4.616;2024-02-15T04:43:52;64222.00;;;-140.72;100.00
38197;BME280;26543;51.976;4.616;2024-02-15T04:46:18;64270.84;;;-140.72;100.00
38197;BME280;26543;51.976;4.616;2024-02-15T04:48:47;64340.03;;;-140.72;100.00
38197;BME280;26543;51.976;4.616;2024-02-15T04:51:15;64374.66;;;-140.72;100.00
38197;BME280;26543;51.976;4.616;2024-02-15T04:53:41;64380.75;;;-140.72;100.00
38197;BME280;26543;51.976;4.616;2024-02-15T04:56:06;64417.38;;;-140.72;100.00
38197;BME280;26543;51.976;4.616;2024-02-15T04:58:37;64472.34;;;-140.72;100.00
38197;BME280;26543;51.976;4.616;2024-02-15T05:01:03;64529.31;;;-140.72;100.00
38197;BME280;26543;51.976;4.616;2024-02-15T05:03:31;64557.81;;;-140.72;100.00
38197;BME280;26543;51.976;4.616;2024-02-15T05:05:59;64537.47;;;-140.72;100.00
38197;BME280;26543;51.976;4.616;2024-02-15T05:08:25;64557.81;;;-140.72;100.00
38197;BME280;26543;51.976;4.616;2024-02-15T05:10:51;64596.50;;;-140.72;100.00
38197;BME280;26543;51.976;4.616;2024-02-15T05:13:21;64631.09;;;-140.72;100.00
38197;BME280;26543;51.976;4.616;2024-02-15T05:15:47;64726.75;;;-140.72;100.00
38197;BME280;26543;51.976;4.616;2024-02-15T05:18:12;64677.91;;;-140.72;100.00
38197;BME280;26543;51.976;4.616;2024-02-15T05:20:38;64698.25;;;-140.72;100.00
38197;BME280;26543;51.976;4.616;2024-02-15T05:23:04;64686.06;;;-140.72;100.00
38197;BME280;26543;51.976;4.616;2024-02-15T05:25:30;64702.34;;;-140.72;100.00
38197;BME280;26543;51.976;4.616;2024-02-15T05:27:58;64714.56;;;-140.72;100.00
38197;BME280;26543;51.976;4.616;2024-02-15T05:30:24;64686.06;;;-140.72;100.00
38197;BME280;26543;51.976;4.616;2024-02-15T05:32:50;64698.25;;;-140.72;100.00
38197;BME280;26543;51.976;4.616;2024-02-15T05:35:15;64700.31;;;-140.72;100.00
38197;BME280;26543;51.976;4.616;2024-02-15T05:37:43;64696.22;;;-140.72;100.00
38197;BME280;26543;51.976;4.616;2024-02-15T05:40:08;64643.31;;;-140.72;100.00
38197;BME280;26543;51.976;4.616;2024-02-15T05:42:41;64671.81;;;-140.72;100.00
38197;BME280;26543;51.976;4.616;2024-02-15T05:47:48;64675.88;;;-140.72;100.00
38197;BME280;26543;51.976;4.616;2024-02-15T05:50:13;64698.25;;;-140.72;100.00
38197;BME280;26543;51.976;4.616;2024-02-15T05:52:40;64653.50;;;-140.72;100.00
38197;BME280;26543;51.976;4.616;2024-02-15T05:55:06;64655.53;;;-140.72;100.00
38197;BME280;26543;51.976;4.616;2024-02-15T05:57:31;64620.91;;;-140.72;100.00
38197;BME280;26543;51.976;4.616;2024-02-15T05:59:57;64631.09;;;-140.72;100.00
38197;BME280;26543;51.976;4.616;2024-02-15T06:02:27;64606.66;;;-140.72;100.00
38197;BME280;26543;51.976;4.616;2024-02-15T06:04:52;64629.06;;;-140.72;100.00
38197;BME280;26543;51.976;4.616;2024-02-15T06:07:18;64596.50;;;-140.72;100.00
38197;BME280;26543;51.976;4.616;2024-02-15T06:09:44;64539.50;;;-140.72;100.00
38197;BME280;26543;51.976;4.616;2024-02-15T06:12:09;64543.56;;;-140.72;100.00
38197;BME280;26543;51.976;4.616;2024-02-15T06:14:34;64555.78;;;-140.72;100.00
38197;BME280;26543;51.976;4.616;2024-02-15T06:17:00;64515.09;;;-140.72;100.00
38197;BME280;26543;51.976;4.616;2024-02-15T06:19:25;64500.84;;;-140.72;100.00
38197;BME280;26543;51.976;4.616;2024-02-15T06:21:50;64464.19;;;-140.72;100.00
38197;BME280;26543;51.976;4.616;2024-02-15T06:24:15;64496.75;;;-140.72;100.00
38197;BME280;26543;51.976;4.616;2024-02-15T06:26:41;64484.56;;;-140.72;100.00
38197;BME280;26543;51.976;4.616;2024-02-15T06:29:07;64468.28;;;-140.72;100.00
38197;BME280;26543;51.976;4.616;2024-02-15T06:31:50;64500.84;;;-140.72;100.00
38197;BME280;26543;51.976;4.616;2024-02-15T06:34:39;64559.84;;;-140.72;100.00
38197;BME280;26543;51.976;4.616;2024-02-15T06:37:36;64523.22;;;-140.72;100.00
38197;BME280;26543;51.976;4.616;2024-02-15T06:40:21;64622.97;;;-140.72;100.00
38197;BME280;26543;51.976;4.616;2024-02-15T06:42:46;64527.28;;;-140.72;100.00
38197;BME280;26543;51.976;4.616;2024-02-15T06:45:12;64525.25;;;-140.72;100.00
38197;BME280;26543;51.976;4.616;2024-02-15T06:47:41;64504.91;;;-140.72;100.00
38197;BME280;26543;51.976;4.616;2024-02-15T06:50:07;64488.63;;;-140.72;100.00
38197;BME280;26543;51.976;4.616;2024-02-15T06:52:34;64535.44;;;-140.72;100.00
38197;BME280;26543;51.976;4.616;2024-02-15T06:54:59;64474.38;;;-140.72;100.00
38197;BME280;26543;51.976;4.616;2024-02-15T06:57:25;64496.75;;;-140.72;100.00
38197;BME280;26543;51.976;4.616;2024-02-15T06:59:51;64502.88;;;-140.72;100.00
38197;BME280;26543;51.976;4.616;2024-02-15T07:02:16;64504.91;;;-140.72;100.00
38197;BME280;26543;51.976;4.616;2024-02-15T07:04:44;64511.00;;;-140.72;100.00
38197;BME280;26543;51.976;4.616;2024-02-15T07:07:10;64498.81;;;-140.72;100.00
38197;BME280;26543;51.976;4.616;2024-02-15T07:09:37;64504.91;;;-140.72;100.00
38197;BME280;26543;51.976;4.616;2024-02-15T07:12:03;64557.81;;;-140.72;100.00
38197;BME280;26543;51.976;4.616;2024-02-15T07:14:29;64551.72;;;-140.72;100.00
38197;BME280;26543;51.976;4.616;2024-02-15T07:16:55;64582.25;;;-140.72;100.00
38197;BME280;26543;51.976;4.616;2024-02-15T07:19:23;64602.59;;;-140.72;100.00
38197;BME280;26543;51.976;4.616;2024-02-15T07:21:49;64616.84;;;-140.72;100.00
38197;BME280;26543;51.976;4.616;2024-02-15T07:24:14;64643.31;;;-140.72;100.00
38197;BME280;26543;51.976;4.616;2024-02-15T07:26:39;64645.34;;;-140.72;100.00
38197;BME280;26543;51.976;4.616;2024-02-15T07:29:05;64669.78;;;-140.72;100.00
38197;BME280;26543;51.976;4.616;2024-02-15T07:31:33;64712.50;;;-140.72;100.00
38197;BME280;26543;51.976;4.616;2024-02-15T07:33:59;64718.63;;;-140.72;100.00
38197;BME280;26543;51.976;4.616;2024-02-15T07:36:24;64706.41;;;-140.72;100.00
38197;BME280;26543;51.976;4.616;2024-02-15T07:38:52;64726.75;;;-140.72;100.00
38197;BME280;26543;51.976;4.616;2024-02-15T07:41:19;64714.56;;;-140.72;100.00
38197;BME280;26543;51.976;4.616;2024-02-15T07:43:51;64800.03;;;-140.72;100.00
38197;BME280;26543;51.976;4.616;2024-02-15T07:46:17;64759.31;;;-140.72;100.00
38197;BME280;26543;51.976;4.616;2024-02-15T07:48:43;64767.47;;;-140.72;100.00
38197;BME280;26543;51.976;4.616;2024-02-15T07:51:13;64832.59;;;-140.72;100.00
38197;BME280;26543;51.976;4.616;2024-02-15T07:53:40;64785.78;;;-140.72;100.00
38197;BME280;26543;51.976;4.616;2024-02-15T07:56:06;64802.06;;;-140.72;100.00
38197;BME280;26543;51.976;4.616;2024-02-15T07:58:31;64777.66;;;-140.72;100.00
38197;BME280;26543;51.976;4.616;2024-02-15T08:00:56;64769.50;;;-140.72;100.00
38197;BME280;26543;51.976;4.616;2024-02-15T08:03:22;64787.81;;;-140.72;100.00
38197;BME280;26543;51.976;4.616;2024-02-15T08:05:48;64771.53;;;-140.72;100.00
38197;BME280;26543;51.976;4.616;2024-02-15T08:08:13;64818.34;;;-140.72;100.00
38197;BME280;26543;51.976;4.616;2024-02-15T08:10:38;64808.19;;;-140.72;100.00
38197;BME280;26543;51.976;4.616;2024-02-15T08:13:04;64808.19;;;-140.72;100.00
38197;BME280;26543;51.976;4.616;2024-02-15T08:15:30;64795.97;;;-140.72;100.00
38197;BME280;26543;51.976;4.616;2024-02-15T08:17:55;64808.19;;;-140.72;100.00
38197;BME280;26543;51.976;4.616;2024-02-15T08:20:20;64818.34;;;-140.72;100.00
38197;BME280;26543;51.976;4.616;2024-02-15T08:22:49;64777.66;;;-140.72;100.00
38197;BME280;26543;51.976;4.616;2024-02-15T08:25:15;64771.53;;;-140.72;100.00
38197;BME280;26543;51.976;4.616;2024-02-15T08:27:48;64759.31;;;-140.72;100.00
38197;BME280;26543;51.976;4.616;2024-02-15T08:30:17;64751.19;;;-140.72;100.00
38197;BME280;26543;51.976;4.616;2024-02-15T08:32:43;64775.63;;;-140.72;100.00
38197;BME280;26543;51.976;4.616;2024-02-15T08:35:09;64751.19;;;-140.72;100.00
38197;BME280;26543;51.976;4.616;2024-02-15T08:37:39;64710.47;;;-140.72;100.00
38197;BME280;26543;51.976;4.616;2024-02-15T08:40:08;64728.78;;;-140.72;100.00
38197;BME280;26543;51.976;4.616;2024-02-15T08:42:42;64738.97;;;-140.72;100.00
38197;BME280;26543;51.976;4.616;2024-02-15T08:45:08;64722.69;;;-140.72;100.00
38197;BME280;26543;51.976;4.616;2024-02-15T08:47:38;64663.66;;;-140.72;100.00
38197;BME280;26543;51.976;4.616;2024-02-15T08:50:04;64708.44;;;-140.72;100.00
38197;BME280;26543;51.976;4.616;2024-02-15T08:52:30;64694.19;;;-140.72;100.00
38197;BME280;26543;51.976;4.616;2024-02-15T08:54:55;64679.94;;;-140.72;100.00
38197;BME280;26543;51.976;4.616;2024-02-15T08:57:22;64706.41;;;-140.72;100.00
38197;BME280;26543;51.976;4.616;2024-02-15T08:59:48;64673.84;;;-140.72;100.00
38197;BME280;26543;51.976;4.616;2024-02-15T09:02:13;64629.06;;;-140.72;100.00
38197;BME280;26543;51.976;4.616;2024-02-15T09:04:39;64596.50;;;-140.72;100.00
38197;BME280;26543;51.976;4.616;2024-02-15T09:07:06;64625.00;;;-140.72;100.00
38197;BME280;26543;51.976;4.616;2024-02-15T09:09:33;64584.28;;;-140.72;100.00
38197;BME280;26543;51.976;4.616;2024-02-15T09:12:01;64555.78;;;-140.72;100.00
38197;BME280;26543;51.976;4.616;2024-02-15T09:14:31;64551.72;;;-140.72;100.00
38197;BME280;26543;51.976;4.616;2024-02-15T09:16:57;64523.22;;;-140.72;100.00
38197;BME280;26543;51.976;4.616;2024-02-15T09:19:22;64511.00;;;-140.72;100.00
38197;BME280;26543;51.976;4.616;2024-02-15T09:21:49;64549.69;;;-140.72;100.00
38197;BME280;26543;51.976;4.616;2024-02-15T09:24:14;64563.94;;;-140.72;100.00
38197;BME280;26543;51.976;4.616;2024-02-15T09:26:41;64519.16;;;-140.72;100.00
38197;BME280;26543;51.976;4.616;2024-02-15T09:29:07;64498.81;;;-140.72;100.00
38197;BME280;26543;51.976;4.616;2024-02-15T09:31:32;64519.16;;;-140.72;100.00
38197;BME280;26543;51.976;4.616;2024-02-15T09:33:59;64480.47;;;-140.72;100.00
38197;BME280;26543;51.976;4.616;2024-02-15T09:36:25;64425.53;;;-140.72;100.00
38197;BME280;26543;51.976;4.616;2024-02-15T09:38:50;64433.66;;;-140.72;100.00
38197;BME280;26543;51.976;4.616;2024-02-15T09:41:15;64279.00;;;-140.72;100.00
38197;BME280;26543;51.976;4.616;2024-02-15T09:43:41;64209.78;;;-140.72;100.00
38197;BME280;26543;51.976;4.616;2024-02-15T09:46:06;64122.28;;;-140.72;100.00
38197;BME280;26543;51.976;4.616;2024-02-15T09:48:32;64030.69;;;-140.72;100.00
38197;BME280;26543;51.976;4.616;2024-02-15T09:50:59;63910.63;;;-140.72;100.00
38197;BME280;26543;51.976;4.616;2024-02-15T09:53:26;63812.97;;;-140.72;100.00
38197;BME280;26543;51.976;4.616;2024-02-15T09:55:54;63694.94;;;-140.72;100.00
38197;BME280;26543;51.976;4.616;2024-02-15T09:58:20;63558.59;;;-140.72;100.00
38197;BME280;26543;51.976;4.616;2024-02-15T10:00:48;63403.94;;;-140.72;100.00
38197;BME280;26543;51.976;4.616;2024-02-15T10:03:18;63292.03;;;-140.72;100.00
38197;BME280;26543;51.976;4.616;2024-02-15T10:05:44;63161.81;;;-140.72;100.00
38197;BME280;26543;51.976;4.616;2024-02-15T10:08:09;62982.78;;;-140.72;100.00
38197;BME280;26543;51.976;4.616;2024-02-15T10:10:36;62838.31;;;-140.72;100.00
38197;BME280;26543;51.976;4.616;2024-02-15T10:13:01;62744.75;;;-140.72;100.00
38197;BME280;26543;51.976;4.616;2024-02-15T10:15:35;62734.56;;;-140.72;100.00
38197;BME280;26543;51.976;4.616;2024-02-15T10:18:05;62561.66;;;-140.72;100.00
38197;BME280;26543;51.976;4.616;2024-02-15T10:20:32;62531.13;;;-140.72;100.00
38197;BME280;26543;51.976;4.616;2024-02-15T10:25:26;62411.13;;;-140.72;100.00
38197;BME280;26543;51.976;4.616;2024-02-15T10:28:01;62360.25;;;-140.72;100.00
38197;BME280;26543;51.976;4.616;2024-02-15T10:30:26;62305.34;;;-140.72;100.00
38197;BME280;26543;51.976;4.616;2024-02-15T10:32:52;62226.00;;;-140.72;100.00
38197;BME280;26543;51.976;4.616;2024-02-15T10:35:21;62268.72;;;-140.72;100.00
38197;BME280;26543;51.976;4.616;2024-02-15T10:37:48;62201.59;;;-140.72;100.00
38197;BME280;26543;51.976;4.616;2024-02-15T10:40:17;62089.72;;;-140.72;100.00
38197;BME280;26543;51.976;4.616;2024-02-15T10:42:46;61998.19;;;-140.72;100.00
38197;BME280;26543;51.976;4.616;2024-02-15T10:45:12;61878.19;;;-140.72;100.00
38197;BME280;26543;51.976;4.616;2024-02-15T10:47:39;61760.22;;;-140.72;100.00
38197;BME280;26543;51.976;4.616;2024-02-15T10:50:06;61607.66;;;-140.72;100.00
38197;BME280;26543;51.976;4.616;2024-02-15T10:52:32;61503.94;;;-140.72;100.00
38197;BME280;26543;51.976;4.616;2024-02-15T10:55:04;61355.47;;;-140.72;100.00
38197;BME280;26543;51.976;4.616;2024-02-15T10:57:37;61219.22;;;-140.72;100.00
38197;BME280;26543;51.976;4.616;2024-02-15T11:00:06;61182.63;;;-140.72;100.00
38197;BME280;26543;51.976;4.616;2024-02-15T11:02:47;61119.56;;;-140.72;100.00
38197;BME280;26543;51.976;4.616;2024-02-15T11:05:16;61146.00;;;-140.72;100.00
38197;BME280;26543;51.976;4.616;2024-02-15T11:07:46;61172.44;;;-140.72;100.00
38197;BME280;26543;51.976;4.616;2024-02-15T11:10:11;61174.47;;;-140.72;100.00
38197;BME280;26543;51.976;4.616;2024-02-15T11:12:42;61188.72;;;-140.72;100.00
38197;BME280;26543;51.976;4.616;2024-02-15T11:15:11;61255.81;;;-140.72;100.00
38197;BME280;26543;51.976;4.616;2024-02-15T11:20:05;61219.22;;;-140.72;100.00
38197;BME280;26543;51.976;4.616;2024-02-15T11:22:34;61170.41;;;-140.72;100.00
38197;BME280;26543;51.976;4.616;2024-02-15T11:25:02;61186.69;;;-140.72;100.00
38197;BME280;26543;51.976;4.616;2024-02-15T11:27:34;61040.28;;;-140.72;100.00
38197;BME280;26543;51.976;4.616;2024-02-15T11:30:02;60997.56;;;-140.72;100.00
38197;BME280;26543;51.976;4.616;2024-02-15T11:32:41;60995.53;;;-140.72;100.00
38197;BME280;26543;51.976;4.616;2024-02-15T11:35:17;60869.44;;;-140.72;100.00
38197;BME280;26543;51.976;4.616;2024-02-15T11:43:06;60609.19;;;-140.72;100.00
38197;BME280;26543;51.976;4.616;2024-02-15T11:45:33;60544.13;;;-140.72;100.00
38197;BME280;26543;51.976;4.616;2024-02-15T11:48:07;60529.88;;;-140.72;100.00
38197;BME280;26543;51.976;4.616;2024-02-15T11:50:36;60411.94;;;-140.72;100.00
38197;BME280;26543;51.976;4.616;2024-02-15T11:53:04;60261.50;;;-140.72;100.00
38197;BME280;26543;51.976;4.616;2024-02-15T11:55:31;60192.38;;;-140.72;100.00
38197;BME280;26543;51.976;4.616;2024-02-15T11:57:58;60143.56;;;-140.72;100.00
38197;BME280;26543;51.976;4.616;2024-02-15T12:00:42;60064.28;;;-140.72;100.00
38197;BME280;26543;51.976;4.616;2024-02-15T12:03:26;59991.09;;;-140.72;100.00
38197;BME280;26543;51.976;4.616;2024-02-15T12:06:11;59985.00;;;-140.72;100.00
38197;BME280;26543;51.976;4.616;2024-02-15T12:08:55;60015.50;;;-140.72;100.00
38197;BME280;26543;51.976;4.616;2024-02-15T12:11:40;60056.16;;;-140.72;100.00
38197;BME280;26543;51.976;4.616;2024-02-15T12:14:24;60143.56;;;-140.72;100.00
38197;BME280;26543;51.976;4.616;2024-02-15T12:17:10;60117.16;;;-140.72;100.00
38197;BME280;26543;51.976;4.616;2024-02-15T12:19:56;60056.16;;;-140.72;100.00
38197;BME280;26543;51.976;4.616;2024-02-15T12:22:40;59917.91;;;-140.72;100.00
38197;BME280;26543;51.976;4.616;2024-02-15T12:25:14;59736.97;;;-140.72;100.00
38197;BME280;26543;51.976;4.616;2024-02-15T12:27:42;59554.03;;;-140.72;100.00
38197;BME280;26543;51.976;4.616;2024-02-15T12:30:18;59417.84;;;-140.72;100.00
38197;BME280;26543;51.976;4.616;2024-02-15T12:32:47;59344.66;;;-140.72;100.00
38197;BME280;26543;51.976;4.616;2024-02-15T12:35:14;58960.50;;;-140.72;100.00
38197;BME280;26543;51.976;4.616;2024-02-15T12:38:01;58336.56;;;-140.72;100.00
38197;BME280;26543;51.976;4.616;2024-02-15T12:40:34;57820.44;;;-140.72;100.00
38197;BME280;26543;51.976;4.616;2024-02-15T12:43:00;57694.47;;;-140.72;100.00
38197;BME280;26543;51.976;4.616;2024-02-15T12:45:26;57649.75;;;-140.72;100.00